createdAt,value
2022-08-30T00:01:59.069Z,20.97
2022-08-30T00:04:28.672Z,19.83
2022-08-30T00:06:56.657Z,18.13
2022-08-30T00:09:24.717Z,18.77
2022-08-30T00:11:54.067Z,19.40
2022-08-30T00:14:22.211Z,19.17
2022-08-30T00:16:51.030Z,21.63
2022-08-30T00:19:19.314Z,19.27
2022-08-30T00:21:48.618Z,20.53
2022-08-30T00:24:16.838Z,19.47
2022-08-30T00:26:44.633Z,20.83
2022-08-30T00:29:12.998Z,19.53
2022-08-30T00:31:41.332Z,19.53
2022-08-30T00:34:09.762Z,19.03
2022-08-30T00:36:37.723Z,19.97
2022-08-30T00:39:07.974Z,22.27
2022-08-30T00:41:37.236Z,18.20
2022-08-30T00:44:05.905Z,19.93
2022-08-30T00:46:34.122Z,19.00
2022-08-30T00:49:04.406Z,18.87
2022-08-30T00:51:33.822Z,20.30
2022-08-30T00:54:02.300Z,17.23
2022-08-30T00:56:32.331Z,18.93
2022-08-30T00:59:01.658Z,20.43
2022-08-30T01:01:30.640Z,16.80
2022-08-30T01:04:02.404Z,17.73
2022-08-30T01:06:32.461Z,17.07
2022-08-30T01:09:02.141Z,19.17
2022-08-30T01:11:33.174Z,17.77
2022-08-30T01:14:01.560Z,20.40
2022-08-30T01:16:31.747Z,17.83
2022-08-30T01:19:00.482Z,18.27
2022-08-30T01:21:31.253Z,18.37
2022-08-30T01:24:03.703Z,17.87
2022-08-30T01:26:32.185Z,16.47
2022-08-30T01:29:02.081Z,18.17
2022-08-30T01:31:30.142Z,17.10
2022-08-30T01:33:58.534Z,18.43
2022-08-30T01:36:26.334Z,18.07
2022-08-30T01:38:55.940Z,19.50
2022-08-30T01:41:26.446Z,18.87
2022-08-30T01:43:55.908Z,19.27
2022-08-30T01:46:27.857Z,20.43
2022-08-30T01:48:56.481Z,18.57
2022-08-30T01:51:25.099Z,18.97
2022-08-30T01:53:53.821Z,16.93
2022-08-30T01:56:22.083Z,18.63
2022-08-30T01:58:51.913Z,18.23
2022-08-30T02:01:21.257Z,17.63
2022-08-30T02:03:49.255Z,17.77
2022-08-30T02:06:18.585Z,17.97
2022-08-30T02:08:47.885Z,18.90
2022-08-30T02:11:16.828Z,17.77
2022-08-30T02:13:45.680Z,17.83
2022-08-30T02:16:17.333Z,18.27
2022-08-30T02:18:45.663Z,18.77
2022-08-30T02:21:14.629Z,18.93
2022-08-30T02:23:43.242Z,15.80
2022-08-30T02:26:11.874Z,16.53
2022-08-30T02:28:49.169Z,17.30
2022-08-30T02:31:20.678Z,16.07
2022-08-30T02:33:50.319Z,13.93
2022-08-30T02:36:18.926Z,12.40
2022-08-30T02:38:47.107Z,12.13
2022-08-30T02:41:14.950Z,12.70
2022-08-30T02:43:43.196Z,12.03
2022-08-30T02:46:13.881Z,10.17
2022-08-30T02:48:46.198Z,12.97
2022-08-30T02:51:15.231Z,10.93
2022-08-30T02:53:44.233Z,10.97
2022-08-30T02:56:12.719Z,11.80
2022-08-30T02:58:42.630Z,15.10
2022-08-30T03:01:12.455Z,13.57
2022-08-30T03:03:40.584Z,16.60
2022-08-30T03:06:11.020Z,17.27
2022-08-30T03:08:38.953Z,17.50
2022-08-30T03:11:09.091Z,16.90
2022-08-30T03:13:37.097Z,17.43
2022-08-30T03:16:05.298Z,24.37
2022-08-30T03:18:33.880Z,21.07
2022-08-30T03:21:01.886Z,17.50
2022-08-30T03:23:31.599Z,17.47
2022-08-30T03:25:59.525Z,16.80
2022-08-30T03:28:27.449Z,16.53
2022-08-30T03:30:56.312Z,19.57
2022-08-30T03:33:24.841Z,17.27
2022-08-30T03:35:53.233Z,18.43
2022-08-30T03:38:21.745Z,18.07
2022-08-30T03:40:51.663Z,19.33
2022-08-30T03:43:19.587Z,16.10
2022-08-30T03:45:47.546Z,22.23
2022-08-30T03:48:15.739Z,19.67
2022-08-30T03:50:43.579Z,19.33
2022-08-30T03:53:11.380Z,17.77
2022-08-30T03:55:39.947Z,18.70
2022-08-30T03:58:09.514Z,16.17
2022-08-30T04:00:37.688Z,16.67
2022-08-30T04:03:06.187Z,20.33
2022-08-30T04:05:34.226Z,18.23
2022-08-30T04:08:01.987Z,16.93
2022-08-30T04:10:29.897Z,13.80
2022-08-30T04:12:59.330Z,14.93
2022-08-30T04:15:30.250Z,12.83
2022-08-30T04:17:58.349Z,16.60
2022-08-30T04:20:26.397Z,11.77
2022-08-30T04:22:54.462Z,12.57
2022-08-30T04:25:22.576Z,12.40
2022-08-30T04:27:50.837Z,11.97
2022-08-30T04:30:19.176Z,12.40
2022-08-30T04:32:48.945Z,12.67
2022-08-30T04:35:17.918Z,16.03
2022-08-30T04:37:47.001Z,13.13
2022-08-30T04:40:16.041Z,12.67
2022-08-30T04:42:45.572Z,17.27
2022-08-30T04:45:16.111Z,12.33
2022-08-30T04:47:44.430Z,13.50
2022-08-30T04:50:16.129Z,14.57
2022-08-30T04:52:44.102Z,13.77
2022-08-30T04:55:15.683Z,15.60
2022-08-30T04:57:45.959Z,13.67
2022-08-30T05:00:14.745Z,14.23
2022-08-30T05:02:44.503Z,16.90
2022-08-30T05:05:31.825Z,13.40
2022-08-30T05:08:01.000Z,17.13
2022-08-30T05:10:30.547Z,14.80
2022-08-30T05:12:58.929Z,15.87
2022-08-30T05:15:26.709Z,15.23
2022-08-30T05:17:54.779Z,15.37
2022-08-30T05:20:24.185Z,15.93
2022-08-30T05:22:53.626Z,16.57
2022-08-30T05:25:23.315Z,17.57
2022-08-30T05:27:52.520Z,15.30
2022-08-30T05:30:21.181Z,19.57
2022-08-30T05:32:49.778Z,18.53
2022-08-30T05:35:22.225Z,14.67
2022-08-30T05:37:54.819Z,28.33
2022-08-30T05:40:24.215Z,21.73
2022-08-30T05:42:53.120Z,20.03
2022-08-30T05:45:21.671Z,22.87
2022-08-30T05:47:49.426Z,26.00
2022-08-30T05:50:19.499Z,23.50
2022-08-30T05:52:47.355Z,21.33
2022-08-30T05:55:16.621Z,20.43
2022-08-30T05:57:44.810Z,26.33
2022-08-30T06:00:15.246Z,20.00
2022-08-30T06:02:43.757Z,19.23
2022-08-30T06:05:14.230Z,18.63
2022-08-30T06:07:42.721Z,17.13
2022-08-30T06:10:12.538Z,21.17
2022-08-30T06:12:42.273Z,20.07
2022-08-30T06:15:10.834Z,19.03
2022-08-30T06:17:39.861Z,18.90
2022-08-30T06:20:09.343Z,18.33
2022-08-30T06:22:38.740Z,19.40
2022-08-30T06:25:08.691Z,19.97
2022-08-30T06:27:36.676Z,19.63
2022-08-30T06:30:08.661Z,17.70
2022-08-30T06:32:38.245Z,17.50
2022-08-30T06:35:07.274Z,20.77
2022-08-30T06:37:35.630Z,17.97
2022-08-30T06:40:05.399Z,18.03
2022-08-30T06:42:34.332Z,17.97
2022-08-30T06:45:10.674Z,18.90
2022-08-30T06:47:41.058Z,20.10
2022-08-30T06:50:11.750Z,19.90
2022-08-30T06:52:40.237Z,21.13
2022-08-30T06:55:08.456Z,17.20
2022-08-30T06:57:36.325Z,16.93
2022-08-30T07:00:05.956Z,18.17
2022-08-30T07:02:33.896Z,16.37
2022-08-30T07:05:03.622Z,18.77
2022-08-30T07:07:31.665Z,18.23
2022-08-30T07:09:59.814Z,21.40
2022-08-30T07:12:27.661Z,20.90
2022-08-30T07:14:55.784Z,18.50
2022-08-30T07:17:41.148Z,21.93
2022-08-30T07:20:11.779Z,20.20
2022-08-30T07:22:39.672Z,20.17
2022-08-30T07:25:07.699Z,21.00
2022-08-30T07:27:35.817Z,20.47
2022-08-30T07:30:04.310Z,22.07
2022-08-30T07:32:32.689Z,21.13
2022-08-30T07:35:03.951Z,19.77
2022-08-30T07:37:33.116Z,20.60
2022-08-30T07:40:01.207Z,22.27
2022-08-30T07:42:28.976Z,19.37
2022-08-30T07:44:57.330Z,20.20
2022-08-30T07:47:25.290Z,21.50
2022-08-30T07:49:54.133Z,22.63
2022-08-30T07:52:22.068Z,18.57
2022-08-30T07:54:52.779Z,18.30
2022-08-30T07:57:21.229Z,22.00
2022-08-30T07:59:49.166Z,22.40
2022-08-30T08:02:17.230Z,21.60
2022-08-30T08:04:45.790Z,18.27
2022-08-30T08:07:13.995Z,19.67
2022-08-30T08:09:42.332Z,24.05
2022-08-30T08:12:12.260Z,17.88
2022-08-30T08:14:41.765Z,20.52
2022-08-30T08:17:09.637Z,22.23
2022-08-30T08:19:37.651Z,19.92
2022-08-30T08:22:21.813Z,20.95
2022-08-30T08:24:50.071Z,20.40
2022-08-30T08:27:19.518Z,22.87
2022-08-30T08:29:47.294Z,18.40
2022-08-30T08:32:16.203Z,22.15
2022-08-30T08:34:46.317Z,23.75
2022-08-30T08:37:17.295Z,25.27
2022-08-30T08:39:48.747Z,22.30
2022-08-30T08:42:23.272Z,20.60
2022-08-30T08:44:57.294Z,24.65
2022-08-30T08:47:32.718Z,22.45
2022-08-30T08:50:03.237Z,23.35
2022-08-30T08:52:49.463Z,22.20
2022-08-30T08:55:19.314Z,22.37
2022-08-30T08:57:47.970Z,21.57
2022-08-30T09:00:18.238Z,22.03
2022-08-30T09:02:47.450Z,21.47
2022-08-30T09:05:17.045Z,23.50
2022-08-30T09:07:47.101Z,20.33
2022-08-30T09:10:14.942Z,21.17
2022-08-30T09:12:44.851Z,23.05
2022-08-30T09:15:18.075Z,18.45
2022-08-30T09:18:01.498Z,24.00
2022-08-30T09:20:36.082Z,19.00
2022-08-30T09:23:22.290Z,17.02
2022-08-30T09:25:52.172Z,16.95
2022-08-30T09:28:23.083Z,16.80
2022-08-30T09:31:02.016Z,17.00
2022-08-30T09:33:30.679Z,18.30
2022-08-30T09:36:12.069Z,18.42
2022-08-30T09:38:40.423Z,17.13
2022-08-30T09:41:23.591Z,21.00
2022-08-30T09:44:06.151Z,21.63
2022-08-30T09:46:34.386Z,18.10
2022-08-30T09:49:02.328Z,17.83
2022-08-30T09:51:38.876Z,19.38
2022-08-30T09:54:17.779Z,15.88
2022-08-30T09:56:50.610Z,16.88
2022-08-30T09:59:27.349Z,16.83
2022-08-30T10:02:02.076Z,16.58
2022-08-30T10:04:36.839Z,17.38
2022-08-30T10:07:10.908Z,16.67
2022-08-30T10:09:43.739Z,14.73
2022-08-30T10:12:15.950Z,15.80
2022-08-30T10:14:51.201Z,17.63
2022-08-30T10:17:25.898Z,21.00
2022-08-30T10:20:03.866Z,19.92
2022-08-30T10:22:36.279Z,14.55
2022-08-30T10:25:08.591Z,16.08
2022-08-30T10:27:40.302Z,15.90
2022-08-30T10:30:10.530Z,15.63
2022-08-30T10:32:43.974Z,20.95
2022-08-30T10:35:19.240Z,20.15
2022-08-30T10:37:51.893Z,19.13
2022-08-30T10:40:39.461Z,18.10
2022-08-30T10:43:10.331Z,15.98
2022-08-30T10:45:42.078Z,14.25
2022-08-30T10:48:15.670Z,16.83
2022-08-30T10:50:49.956Z,16.42
2022-08-30T10:53:21.534Z,17.00
2022-08-30T10:55:51.433Z,15.77
2022-08-30T10:58:20.250Z,13.18
2022-08-30T11:00:57.345Z,15.00
2022-08-30T11:03:38.547Z,14.30
2022-08-30T11:06:24.152Z,16.10
2022-08-30T11:12:00.717Z,15.32
2022-08-30T11:14:29.826Z,14.10
2022-08-30T11:17:02.280Z,14.35
2022-08-30T11:19:36.127Z,17.05
2022-08-30T11:22:13.151Z,12.70
2022-08-30T11:24:57.622Z,12.40
2022-08-30T11:30:37.368Z,14.05
2022-08-30T11:33:26.900Z,16.95
2022-08-30T11:35:55.626Z,11.20
2022-08-30T11:38:38.230Z,15.25
2022-08-30T11:41:10.579Z,11.40
2022-08-30T11:43:53.150Z,13.20
2022-08-30T11:46:24.508Z,11.20
2022-08-30T11:48:55.829Z,11.38
2022-08-30T11:51:33.770Z,10.68
2022-08-30T11:54:08.006Z,13.30
2022-08-30T11:56:44.092Z,13.00
2022-08-30T11:59:20.311Z,11.45
2022-08-30T12:01:52.224Z,11.45
2022-08-30T12:04:34.860Z,15.23
2022-08-30T12:07:07.138Z,11.25
2022-08-30T12:10:03.414Z,15.57
2022-08-30T12:13:02.045Z,10.90
2022-08-30T12:15:53.551Z,10.60
2022-08-30T12:18:30.074Z,15.77
2022-08-30T12:21:01.347Z,10.75
2022-08-30T12:23:37.294Z,12.48
2022-08-30T12:26:16.905Z,9.82
2022-08-30T12:28:51.317Z,12.30
2022-08-30T12:31:21.492Z,10.88
2022-08-30T12:33:51.771Z,11.07
2022-08-30T12:36:32.336Z,12.18
2022-08-30T12:39:22.847Z,10.55
2022-08-30T12:41:50.954Z,11.48
2022-08-30T12:44:21.304Z,12.30
2022-08-30T12:46:51.965Z,12.00
2022-08-30T12:49:22.480Z,14.35
2022-08-30T12:51:51.267Z,13.05
2022-08-30T12:54:21.882Z,14.93
2022-08-30T12:56:55.147Z,11.88
2022-08-30T12:59:41.642Z,14.38
2022-08-30T13:02:20.229Z,12.70
2022-08-30T13:04:50.553Z,12.82
2022-08-30T13:07:30.384Z,12.48
2022-08-30T13:10:06.708Z,17.27
2022-08-30T13:12:38.566Z,14.75
2022-08-30T13:15:19.843Z,12.85
2022-08-30T13:17:48.372Z,15.02
2022-08-30T13:20:25.384Z,14.13
2022-08-30T13:23:03.314Z,12.95
2022-08-30T13:25:33.058Z,12.35
2022-08-30T13:28:01.432Z,14.82
2022-08-30T13:30:30.571Z,13.10
2022-08-30T13:33:01.536Z,14.18
2022-08-30T13:35:31.123Z,13.27
2022-08-30T13:37:59.428Z,12.60
2022-08-30T13:40:27.398Z,12.93
2022-08-30T13:42:56.704Z,12.25
2022-08-30T13:45:42.219Z,14.13
2022-08-30T13:48:11.894Z,14.32
2022-08-30T13:50:41.120Z,15.35
2022-08-30T13:53:10.622Z,13.02
2022-08-30T13:55:39.466Z,14.77
2022-08-30T13:58:13.656Z,14.52
2022-08-30T14:00:41.838Z,14.52
2022-08-30T14:03:11.443Z,16.17
2022-08-30T14:05:49.410Z,13.40
2022-08-30T14:11:07.818Z,15.25
2022-08-30T14:13:38.063Z,17.20
2022-08-30T14:18:56.287Z,13.88
2022-08-30T14:21:25.027Z,13.60
2022-08-30T14:23:52.992Z,14.98
2022-08-30T14:26:22.557Z,14.38
2022-08-30T14:28:53.476Z,18.00
2022-08-30T14:31:21.643Z,16.30
2022-08-30T14:33:50.966Z,14.43
2022-08-30T14:36:19.067Z,12.10
2022-08-30T14:38:47.946Z,14.77
2022-08-30T14:41:17.015Z,13.90
2022-08-30T14:43:45.777Z,12.82
2022-08-30T14:46:15.576Z,13.00
2022-08-30T14:48:45.021Z,12.20
2022-08-30T14:51:15.608Z,13.15
2022-08-30T14:53:43.713Z,13.18
2022-08-30T14:56:12.285Z,13.52
2022-08-30T14:58:40.826Z,14.45
2022-08-30T15:01:10.113Z,15.40
2022-08-30T15:03:42.515Z,12.52
2022-08-30T15:06:10.468Z,13.43
2022-08-30T15:08:39.393Z,14.15
2022-08-30T15:11:09.156Z,13.68
2022-08-30T15:13:40.006Z,13.05
2022-08-30T15:16:11.829Z,12.40
2022-08-30T15:18:42.671Z,12.98
2022-08-30T15:21:13.591Z,15.70
2022-08-30T15:23:42.099Z,15.70
2022-08-30T15:26:10.313Z,15.80
2022-08-30T15:28:38.208Z,15.15
2022-08-30T15:31:08.991Z,18.20
2022-08-30T15:33:37.213Z,14.25
2022-08-30T15:36:06.178Z,19.13
2022-08-30T15:38:36.011Z,18.05
2022-08-30T15:41:07.187Z,14.23
2022-08-30T15:43:35.399Z,16.13
2022-08-30T15:46:16.955Z,17.25
2022-08-30T15:48:45.448Z,14.05
2022-08-30T15:51:13.868Z,15.60
2022-08-30T15:53:43.659Z,16.00
2022-08-30T15:56:12.161Z,17.00
2022-08-30T15:58:40.756Z,12.98
2022-08-30T16:01:10.096Z,13.57
2022-08-30T16:03:40.363Z,15.48
2022-08-30T16:06:11.971Z,13.35
2022-08-30T16:08:40.069Z,13.38
2022-08-30T16:11:09.850Z,13.57
2022-08-30T16:13:42.117Z,16.13
2022-08-30T16:16:11.898Z,13.70
2022-08-30T16:18:40.267Z,13.07
2022-08-30T16:21:09.528Z,14.05
2022-08-30T16:23:37.898Z,13.25
2022-08-30T16:26:06.608Z,17.40
2022-08-30T16:28:38.003Z,19.73
2022-08-30T16:31:07.638Z,12.63
2022-08-30T16:33:39.946Z,14.10
2022-08-30T16:36:10.911Z,17.27
2022-08-30T16:38:40.259Z,20.42
2022-08-30T16:41:09.608Z,14.52
2022-08-30T16:43:39.525Z,20.27
2022-08-30T16:46:12.816Z,13.00
2022-08-30T16:48:41.179Z,13.32
2022-08-30T16:51:10.161Z,12.93
2022-08-30T16:53:38.661Z,15.13
2022-08-30T16:56:08.361Z,12.80
2022-08-30T16:58:36.585Z,18.58
2022-08-30T17:01:06.380Z,13.10
2022-08-30T17:03:35.401Z,11.65
2022-08-30T17:06:07.103Z,14.23
2022-08-30T17:08:35.556Z,12.48
2022-08-30T17:11:03.461Z,16.73
2022-08-30T17:13:33.139Z,13.52
2022-08-30T17:16:02.882Z,14.07
2022-08-30T17:18:33.060Z,12.95
2022-08-30T17:21:00.782Z,15.80
2022-08-30T17:23:28.943Z,18.27
2022-08-30T17:25:58.180Z,15.43
2022-08-30T17:28:27.094Z,17.65
2022-08-30T17:30:55.597Z,16.05
2022-08-30T17:33:23.679Z,17.92
2022-08-30T17:35:54.579Z,17.05
2022-08-30T17:38:23.616Z,13.60
2022-08-30T17:40:51.552Z,18.75
2022-08-30T17:43:20.356Z,15.80
2022-08-30T17:45:50.535Z,18.40
2022-08-30T17:48:18.500Z,17.85
2022-08-30T17:50:46.786Z,17.40
2022-08-30T17:53:17.396Z,16.90
2022-08-30T17:55:48.875Z,15.45
2022-08-30T17:58:17.140Z,19.83
2022-08-30T18:00:50.321Z,14.60
2022-08-30T18:03:18.800Z,19.05
2022-08-30T18:05:47.450Z,17.75
2022-08-30T18:08:15.548Z,16.85
2022-08-30T18:10:44.872Z,16.30
2022-08-30T18:13:15.148Z,18.10
2022-08-30T18:18:31.979Z,26.88
2022-08-30T18:20:59.931Z,23.08
2022-08-30T18:23:28.249Z,20.15
2022-08-30T18:25:58.568Z,17.45
2022-08-30T18:28:27.805Z,22.63
2022-08-30T18:30:57.155Z,20.30
2022-08-30T18:33:25.099Z,20.27
2022-08-30T18:35:53.614Z,17.53
2022-08-30T18:38:23.832Z,21.67
2022-08-30T18:40:52.755Z,20.70
2022-08-30T18:43:24.717Z,18.42
2022-08-30T18:45:58.711Z,19.13
2022-08-30T18:48:27.264Z,21.53
2022-08-30T18:50:55.694Z,19.13
2022-08-30T18:53:28.752Z,20.67
2022-08-30T18:55:57.769Z,17.40
2022-08-30T18:58:27.084Z,17.40
2022-08-30T19:00:56.965Z,16.93
2022-08-30T19:03:24.932Z,20.13
2022-08-30T19:05:53.469Z,18.87
2022-08-30T19:08:21.514Z,18.53
2022-08-30T19:10:49.341Z,17.50
2022-08-30T19:13:17.609Z,20.30
2022-08-30T19:15:46.935Z,19.13
2022-08-30T19:18:17.429Z,18.43
2022-08-30T19:20:45.783Z,22.77
2022-08-30T19:23:15.364Z,22.13
2022-08-30T19:25:43.908Z,19.13
2022-08-30T19:28:12.496Z,20.57
2022-08-30T19:30:40.542Z,19.33
2022-08-30T19:33:11.643Z,19.83
2022-08-30T19:35:39.899Z,20.13
2022-08-30T19:38:07.750Z,20.63
2022-08-30T19:40:36.124Z,21.97
2022-08-30T19:43:05.304Z,21.00
2022-08-30T19:45:33.882Z,19.17
2022-08-30T19:48:02.315Z,21.63
2022-08-30T19:50:31.650Z,23.20
2022-08-30T19:52:59.526Z,18.90
2022-08-30T19:55:31.379Z,19.80
2022-08-30T19:57:59.482Z,19.60
2022-08-30T20:00:27.311Z,20.73
2022-08-30T20:02:59.222Z,20.77
2022-08-30T20:05:27.397Z,19.87
2022-08-30T20:07:58.373Z,19.03
2022-08-30T20:10:26.874Z,15.53
2022-08-30T20:12:54.878Z,21.13
2022-08-30T20:15:22.916Z,16.90
2022-08-30T20:18:05.058Z,16.33
2022-08-30T20:20:36.703Z,14.13
2022-08-30T20:23:06.573Z,16.00
2022-08-30T20:24:26.634Z,15.30
2022-08-30T20:25:36.300Z,16.40
2022-08-30T20:28:04.823Z,14.23
2022-08-30T20:30:33.454Z,13.23
2022-08-30T20:33:06.879Z,15.57
2022-08-30T20:35:36.819Z,13.30
2022-08-30T20:38:06.692Z,14.97
2022-08-30T20:40:37.317Z,15.13
2022-08-30T20:43:05.945Z,13.23
2022-08-30T20:45:34.278Z,14.57
2022-08-30T20:48:03.263Z,15.67
2022-08-30T20:50:31.354Z,17.20
2022-08-30T20:52:59.420Z,15.20
2022-08-30T20:55:27.227Z,15.97
2022-08-30T20:57:59.204Z,15.13
2022-08-30T21:00:27.474Z,16.03
2022-08-30T21:02:55.299Z,14.00
2022-08-30T21:05:23.549Z,17.00
2022-08-30T21:07:51.356Z,15.93
2022-08-30T21:10:23.192Z,16.03
2022-08-30T21:12:51.444Z,17.77
2022-08-30T21:15:37.315Z,17.73
2022-08-30T21:18:06.575Z,16.93
2022-08-30T21:20:34.291Z,18.40
2022-08-30T21:23:02.065Z,18.03
2022-08-30T21:25:31.144Z,17.53
2022-08-30T21:27:59.537Z,16.03
2022-08-30T21:30:29.551Z,15.50
2022-08-30T21:33:00.109Z,17.43
2022-08-30T21:35:45.929Z,17.77
2022-08-30T21:38:14.284Z,18.27
2022-08-30T21:40:42.454Z,15.70
2022-08-30T21:43:10.912Z,15.80
2022-08-30T21:45:40.653Z,14.97
2022-08-30T21:48:08.785Z,16.60
2022-08-30T21:50:39.645Z,18.87
2022-08-30T21:53:07.682Z,15.37
2022-08-30T21:55:35.488Z,16.23
2022-08-30T21:58:04.561Z,16.83
2022-08-30T22:00:33.779Z,15.73
2022-08-30T22:03:05.369Z,16.53
2022-08-30T22:05:33.440Z,18.30
2022-08-30T22:08:01.262Z,15.57
2022-08-30T22:10:32.992Z,16.63
2022-08-30T22:13:03.619Z,17.17
2022-08-30T22:15:31.653Z,20.93
2022-08-30T22:18:00.695Z,16.00
2022-08-30T22:20:31.490Z,18.70
2022-08-30T22:22:59.769Z,18.57
2022-08-30T22:25:27.944Z,17.23
2022-08-30T22:27:56.154Z,17.13
2022-08-30T22:30:24.974Z,16.83
2022-08-30T22:32:55.557Z,18.30
2022-08-30T22:35:23.781Z,17.80
2022-08-30T22:37:53.641Z,17.13
2022-08-30T22:40:22.424Z,18.53
2022-08-30T22:42:50.256Z,21.13
2022-08-30T22:45:17.996Z,16.97
2022-08-30T22:47:45.862Z,19.60
2022-08-30T22:50:14.391Z,16.93
2022-08-30T22:52:42.699Z,17.93
2022-08-30T22:55:12.041Z,16.37
2022-08-30T22:57:40.540Z,17.77
2022-08-30T23:00:11.877Z,18.47
2022-08-30T23:02:39.919Z,23.50
2022-08-30T23:05:08.578Z,18.13
2022-08-30T23:07:36.494Z,20.53
2022-08-30T23:10:05.320Z,18.20
2022-08-30T23:12:37.934Z,20.70
2022-08-30T23:15:06.745Z,20.23
2022-08-30T23:17:39.690Z,19.60
2022-08-30T23:20:09.616Z,19.37
2022-08-30T23:22:37.737Z,17.13
2022-08-30T23:25:24.398Z,18.97
2022-08-30T23:28:17.492Z,18.97
2022-08-30T23:31:06.401Z,18.20
2022-08-30T23:33:51.714Z,18.67
2022-08-30T23:36:36.846Z,18.20
2022-08-30T23:39:22.932Z,20.10
2022-08-30T23:42:08.147Z,18.17
2022-08-30T23:44:55.212Z,20.77
2022-08-30T23:47:40.625Z,18.80
2022-08-30T23:50:26.376Z,19.03
2022-08-30T23:53:11.902Z,19.03
2022-08-30T23:55:57.993Z,19.63
2022-08-30T23:58:44.017Z,17.23
